createdAt,value
2022-10-27T00:00:33.607Z,4.88
2022-10-27T00:03:00.227Z,4.75
2022-10-27T00:05:26.890Z,4.47
2022-10-27T00:07:53.761Z,4.30
2022-10-27T00:10:20.369Z,4.85
2022-10-27T00:12:46.889Z,5.28
2022-10-27T00:15:14.353Z,4.20
2022-10-27T00:17:41.141Z,4.38
2022-10-27T00:20:08.681Z,4.27
2022-10-27T00:22:35.216Z,4.22
2022-10-27T00:25:01.894Z,4.18
2022-10-27T00:27:28.564Z,4.38
2022-10-27T00:29:55.004Z,4.90
2022-10-27T00:32:21.515Z,4.47
2022-10-27T00:34:47.919Z,5.20
2022-10-27T00:37:14.499Z,4.43
2022-10-27T00:39:40.881Z,4.20
2022-10-27T00:42:12.042Z,4.40
2022-10-27T00:44:41.125Z,4.30
2022-10-27T00:47:19.134Z,5.20
2022-10-27T00:49:57.461Z,4.70
2022-10-27T00:52:27.461Z,4.35
2022-10-27T00:54:57.097Z,5.03
2022-10-27T00:57:24.152Z,4.30
2022-10-27T00:59:50.577Z,4.57
2022-10-27T01:02:17.396Z,5.10
2022-10-27T01:04:50.885Z,4.65
2022-10-27T01:07:19.418Z,4.25
2022-10-27T01:09:46.814Z,4.23
2022-10-27T01:12:13.226Z,4.28
2022-10-27T01:14:39.939Z,4.03
2022-10-27T01:17:40.121Z,4.40
2022-10-27T01:20:27.737Z,4.85
2022-10-27T01:23:24.830Z,3.90
2022-10-27T01:26:21.650Z,4.65
2022-10-27T01:29:03.806Z,4.68
2022-10-27T01:31:36.417Z,4.30
2022-10-27T01:34:21.513Z,4.60
2022-10-27T01:37:13.650Z,4.43
2022-10-27T01:39:53.258Z,4.45
2022-10-27T01:42:32.582Z,4.28
2022-10-27T01:45:00.610Z,4.32
2022-10-27T01:47:27.421Z,4.13
2022-10-27T01:49:56.756Z,4.27
2022-10-27T01:52:43.533Z,4.50
2022-10-27T01:55:47.263Z,4.00
2022-10-27T01:58:39.772Z,4.07
2022-10-27T02:01:43.228Z,4.45
2022-10-27T02:04:18.405Z,4.30
2022-10-27T02:06:55.838Z,4.00
2022-10-27T02:09:33.899Z,3.97
2022-10-27T02:12:04.639Z,4.07
2022-10-27T02:14:31.581Z,4.60
2022-10-27T02:16:59.546Z,4.13
2022-10-27T02:19:30.173Z,4.22
2022-10-27T02:22:00.643Z,4.03
2022-10-27T02:24:28.030Z,3.88
2022-10-27T02:27:17.863Z,3.65
2022-10-27T02:29:47.837Z,3.70
2022-10-27T02:32:18.801Z,3.60
2022-10-27T02:34:47.074Z,3.90
2022-10-27T02:37:25.440Z,4.22
2022-10-27T02:39:51.973Z,3.63
2022-10-27T02:42:18.364Z,4.93
2022-10-27T02:44:44.741Z,6.60
2022-10-27T02:47:11.103Z,4.40
2022-10-27T02:49:37.476Z,4.53
2022-10-27T02:52:04.718Z,7.43
2022-10-27T02:54:31.738Z,3.33
2022-10-27T02:56:58.790Z,4.50
2022-10-27T02:59:25.532Z,4.00
2022-10-27T03:01:52.145Z,4.10
2022-10-27T03:04:18.678Z,4.00
2022-10-27T03:06:45.085Z,4.00
2022-10-27T03:09:11.457Z,4.82
2022-10-27T03:11:39.555Z,5.50
2022-10-27T03:14:07.970Z,3.92
2022-10-27T03:16:34.358Z,4.43
2022-10-27T03:19:00.749Z,4.00
2022-10-27T03:21:27.096Z,4.20
2022-10-27T03:23:53.477Z,4.40
2022-10-27T03:26:19.874Z,4.45
2022-10-27T03:28:46.242Z,4.65
2022-10-27T03:31:12.633Z,4.60
2022-10-27T03:33:38.999Z,5.20
2022-10-27T03:36:05.780Z,5.10
2022-10-27T03:38:32.258Z,4.78
2022-10-27T03:40:58.646Z,4.32
2022-10-27T03:43:25.171Z,6.83
2022-10-27T03:45:55.075Z,4.68
2022-10-27T03:48:23.645Z,4.07
2022-10-27T03:50:51.067Z,4.13
2022-10-27T03:53:18.069Z,3.90
2022-10-27T03:55:44.923Z,4.17
2022-10-27T03:58:16.829Z,3.92
2022-10-27T04:00:44.573Z,3.85
2022-10-27T04:03:11.437Z,3.75
2022-10-27T04:05:37.818Z,3.22
2022-10-27T04:08:04.285Z,3.10
2022-10-27T04:10:30.667Z,3.13
2022-10-27T04:12:57.563Z,3.40
2022-10-27T04:15:26.520Z,3.63
2022-10-27T04:17:57.595Z,3.67
2022-10-27T04:20:24.585Z,3.93
2022-10-27T04:22:51.604Z,3.45
2022-10-27T04:25:18.353Z,4.65
2022-10-27T04:27:44.825Z,4.65
2022-10-27T04:30:11.712Z,4.60
2022-10-27T04:32:38.211Z,4.30
2022-10-27T04:35:05.918Z,4.53
2022-10-27T04:37:34.016Z,4.95
2022-10-27T04:40:00.796Z,5.00
2022-10-27T04:42:27.188Z,5.30
2022-10-27T04:44:53.672Z,4.37
2022-10-27T04:47:20.056Z,4.65
2022-10-27T04:49:46.616Z,4.25
2022-10-27T04:54:44.902Z,5.00
2022-10-27T04:57:11.502Z,4.00
2022-10-27T04:59:37.929Z,4.30
2022-10-27T05:02:04.506Z,4.70
2022-10-27T05:04:30.904Z,4.10
2022-10-27T05:06:57.415Z,4.28
2022-10-27T05:09:23.785Z,4.43
2022-10-27T05:11:50.260Z,4.28
2022-10-27T05:14:16.712Z,4.43
2022-10-27T05:16:43.064Z,4.03
2022-10-27T05:19:09.423Z,3.75
2022-10-27T05:21:35.843Z,6.27
2022-10-27T05:24:02.303Z,6.35
2022-10-27T05:26:29.429Z,4.78
2022-10-27T05:28:57.370Z,4.22
2022-10-27T05:31:23.739Z,4.30
2022-10-27T05:33:50.172Z,4.60
2022-10-27T05:36:16.588Z,4.85
2022-10-27T05:38:45.803Z,5.22
2022-10-27T05:41:12.190Z,5.05
2022-10-27T05:43:41.527Z,4.43
2022-10-27T05:46:09.025Z,4.17
2022-10-27T05:48:38.209Z,4.40
2022-10-27T05:51:08.074Z,4.43
2022-10-27T05:53:34.435Z,4.45
2022-10-27T05:56:01.018Z,4.90
2022-10-27T05:58:27.366Z,4.10
2022-10-27T06:00:58.750Z,5.32
2022-10-27T06:03:26.005Z,4.07
2022-10-27T06:05:53.440Z,4.82
2022-10-27T06:08:20.709Z,5.60
2022-10-27T06:10:48.008Z,5.30
2022-10-27T06:13:14.749Z,9.32
2022-10-27T06:18:11.325Z,4.35
2022-10-27T06:20:37.743Z,3.70
2022-10-27T06:23:05.714Z,3.90
2022-10-27T06:25:32.120Z,3.60
2022-10-27T06:27:58.703Z,4.30
2022-10-27T06:30:25.191Z,5.32
2022-10-27T06:32:52.003Z,4.32
2022-10-27T06:35:19.645Z,5.00
2022-10-27T06:37:46.814Z,3.92
2022-10-27T06:40:16.363Z,4.10
2022-10-27T06:43:01.702Z,4.90
2022-10-27T06:45:29.362Z,3.70
2022-10-27T06:47:58.068Z,3.90
2022-10-27T06:50:24.542Z,3.97
2022-10-27T06:52:51.809Z,4.57
2022-10-27T06:55:19.093Z,4.18
2022-10-27T06:57:45.464Z,6.80
2022-10-27T07:00:12.626Z,4.93
2022-10-27T07:02:39.104Z,5.20
2022-10-27T07:05:07.553Z,5.53
2022-10-27T07:07:34.785Z,6.15
2022-10-27T07:10:01.178Z,5.97
2022-10-27T07:12:27.811Z,4.60
2022-10-27T07:14:54.281Z,5.30
2022-10-27T07:19:52.154Z,6.95
2022-10-27T07:22:18.662Z,7.65
2022-10-27T07:24:45.068Z,8.17
2022-10-27T07:27:11.470Z,6.70
2022-10-27T07:29:37.922Z,5.25
2022-10-27T07:32:04.628Z,4.43
2022-10-27T07:34:31.013Z,2.90
2022-10-27T07:36:57.397Z,3.60
2022-10-27T07:39:23.751Z,3.70
2022-10-27T07:41:50.115Z,3.72
2022-10-27T07:44:16.729Z,4.88
2022-10-27T07:46:43.230Z,6.03
2022-10-27T07:49:09.622Z,5.87
2022-10-27T07:51:36.075Z,4.70
2022-10-27T07:54:02.612Z,3.90
2022-10-27T07:56:29.079Z,3.78
2022-10-27T07:58:55.486Z,4.25
2022-10-27T08:01:22.022Z,4.73
2022-10-27T08:03:51.120Z,4.80
2022-10-27T08:06:17.954Z,5.28
2022-10-27T08:08:44.433Z,5.40
2022-10-27T08:11:10.827Z,5.85
2022-10-27T08:13:37.182Z,5.80
2022-10-27T08:16:03.636Z,23.33
2022-10-27T08:18:30.003Z,6.50
2022-10-27T08:20:56.465Z,5.00
2022-10-27T08:23:25.508Z,4.68
2022-10-27T08:25:52.844Z,4.03
2022-10-27T08:28:19.388Z,4.90
2022-10-27T08:30:52.316Z,4.32
2022-10-27T08:33:22.488Z,4.13
2022-10-27T08:35:50.607Z,4.38
2022-10-27T08:38:18.319Z,4.53
2022-10-27T08:41:07.745Z,4.07
2022-10-27T08:43:46.001Z,4.07
2022-10-27T08:46:31.041Z,4.00
2022-10-27T08:49:05.279Z,3.63
2022-10-27T08:51:35.060Z,3.37
2022-10-27T08:54:04.385Z,3.20
2022-10-27T08:56:39.213Z,3.47
2022-10-27T08:59:05.916Z,3.65
2022-10-27T09:01:49.820Z,3.30
2022-10-27T09:04:28.870Z,3.50
2022-10-27T09:07:16.721Z,3.10
2022-10-27T09:09:52.410Z,2.70
2022-10-27T09:12:26.536Z,3.03
2022-10-27T09:15:15.813Z,2.72
2022-10-27T09:17:49.047Z,2.20
2022-10-27T09:20:35.237Z,2.42
2022-10-27T09:23:06.786Z,2.20
2022-10-27T09:25:38.379Z,2.00
2022-10-27T09:28:05.911Z,2.10
2022-10-27T09:30:35.406Z,2.10
2022-10-27T09:33:01.845Z,1.90
2022-10-27T09:35:31.626Z,2.28
2022-10-27T09:37:59.636Z,2.10
2022-10-27T09:40:28.752Z,2.15
2022-10-27T09:42:56.604Z,2.00
2022-10-27T09:45:25.457Z,2.35
2022-10-27T09:47:56.519Z,2.28
2022-10-27T09:50:26.216Z,2.00
2022-10-27T09:52:55.141Z,2.33
2022-10-27T09:55:21.849Z,1.80
2022-10-27T09:57:50.046Z,2.10
2022-10-27T10:00:16.740Z,2.08
2022-10-27T10:02:54.514Z,2.17
2022-10-27T10:05:27.047Z,2.20
2022-10-27T10:08:16.674Z,2.73
2022-10-27T10:11:02.581Z,2.40
2022-10-27T10:13:30.923Z,2.53
2022-10-27T10:16:12.797Z,2.05
2022-10-27T10:18:41.126Z,2.40
2022-10-27T10:21:10.714Z,2.47
2022-10-27T10:23:57.874Z,2.50
2022-10-27T10:26:29.532Z,2.88
2022-10-27T10:29:06.928Z,3.47
2022-10-27T10:31:33.545Z,2.50
2022-10-27T10:34:05.012Z,2.33
2022-10-27T10:36:39.776Z,2.10
2022-10-27T10:39:29.936Z,2.00
2022-10-27T10:42:17.531Z,2.47
2022-10-27T10:44:47.988Z,2.30
2022-10-27T10:47:29.544Z,2.10
2022-10-27T10:50:02.113Z,2.20
2022-10-27T10:52:38.192Z,2.40
2022-10-27T10:55:18.283Z,2.20
2022-10-27T10:57:46.332Z,2.15
2022-10-27T11:00:17.796Z,2.17
2022-10-27T11:02:59.253Z,2.17
2022-10-27T11:05:32.003Z,2.13
2022-10-27T11:07:59.143Z,2.58
2022-10-27T11:10:28.208Z,2.53
2022-10-27T11:13:00.432Z,2.40
2022-10-27T11:15:42.724Z,2.22
2022-10-27T11:18:12.137Z,2.50
2022-10-27T11:20:38.785Z,2.20
2022-10-27T11:23:28.412Z,2.30
2022-10-27T11:25:58.361Z,2.53
2022-10-27T11:28:44.566Z,2.50
2022-10-27T11:31:24.352Z,2.35
2022-10-27T11:34:16.883Z,2.20
2022-10-27T11:36:59.343Z,2.80
2022-10-27T11:39:43.627Z,2.70
2022-10-27T11:42:30.500Z,2.15
2022-10-27T11:45:35.358Z,2.35
2022-10-27T11:48:13.407Z,2.28
2022-10-27T11:50:53.679Z,2.30
2022-10-27T11:53:20.273Z,2.77
2022-10-27T11:56:18.805Z,2.00
2022-10-27T11:58:51.945Z,2.38
2022-10-27T12:01:49.028Z,2.40
2022-10-27T12:04:39.947Z,2.50
2022-10-27T12:07:28.758Z,2.17
2022-10-27T12:10:10.355Z,1.95
2022-10-27T12:12:44.885Z,2.50
2022-10-27T12:15:35.586Z,2.40
2022-10-27T12:18:13.443Z,2.47
2022-10-27T12:20:51.709Z,2.40
2022-10-27T12:23:24.409Z,2.10
2022-10-27T12:26:11.774Z,2.28
2022-10-27T12:28:38.762Z,4.75
2022-10-27T12:31:12.512Z,3.63
2022-10-27T12:33:48.066Z,2.60
2022-10-27T12:36:20.531Z,2.50
2022-10-27T12:38:58.908Z,2.17
2022-10-27T12:41:31.675Z,2.25
2022-10-27T12:44:43.164Z,2.60
2022-10-27T12:47:35.991Z,2.27
2022-10-27T12:50:29.453Z,2.65
2022-10-27T12:53:13.087Z,2.33
2022-10-27T12:55:53.365Z,2.30
2022-10-27T12:58:52.770Z,2.33
2022-10-27T13:01:39.342Z,2.47
2022-10-27T13:04:20.724Z,2.10
2022-10-27T13:07:16.395Z,2.63
2022-10-27T13:09:54.435Z,2.40
2022-10-27T13:12:28.195Z,2.63
2022-10-27T13:15:11.791Z,2.27
2022-10-27T13:17:57.099Z,2.40
2022-10-27T13:20:55.111Z,2.38
2022-10-27T13:23:34.528Z,2.40
2022-10-27T13:26:20.306Z,2.20
2022-10-27T13:28:56.273Z,2.13
2022-10-27T13:31:24.510Z,2.30
2022-10-27T13:34:09.503Z,2.63
2022-10-27T13:36:37.447Z,2.35
2022-10-27T13:39:16.400Z,2.58
2022-10-27T13:41:56.010Z,2.30
2022-10-27T13:44:39.699Z,2.33
2022-10-27T13:47:12.135Z,2.22
2022-10-27T13:49:41.383Z,2.30
2022-10-27T13:52:16.846Z,2.60
2022-10-27T13:54:58.375Z,2.50
2022-10-27T13:58:00.617Z,2.72
2022-10-27T14:01:05.090Z,2.80
2022-10-27T14:06:09.990Z,2.65
2022-10-27T14:08:48.931Z,2.83
2022-10-27T14:11:24.939Z,2.80
2022-10-27T14:13:55.831Z,2.90
2022-10-27T14:16:26.591Z,2.90
2022-10-27T14:19:12.510Z,3.03
2022-10-27T14:21:48.922Z,2.73
2022-10-27T14:24:21.250Z,3.08
2022-10-27T14:26:47.759Z,3.35
2022-10-27T14:29:23.776Z,2.95
2022-10-27T14:31:50.275Z,3.40
2022-10-27T14:34:22.528Z,2.77
2022-10-27T14:36:49.978Z,3.10
2022-10-27T14:39:22.417Z,3.42
2022-10-27T14:41:50.529Z,2.90
2022-10-27T14:44:27.418Z,3.17
2022-10-27T14:47:00.028Z,3.00
2022-10-27T14:49:37.235Z,2.90
2022-10-27T14:52:08.129Z,2.95
2022-10-27T14:54:34.623Z,2.90
2022-10-27T14:57:28.942Z,3.03
2022-10-27T14:59:55.363Z,3.20
2022-10-27T15:02:23.145Z,2.92
2022-10-27T15:04:49.573Z,3.10
2022-10-27T15:07:20.073Z,3.00
2022-10-27T15:09:52.783Z,3.30
2022-10-27T15:12:21.225Z,3.10
2022-10-27T15:14:48.125Z,3.22
2022-10-27T15:17:23.220Z,3.45
2022-10-27T15:19:56.436Z,3.25
2022-10-27T15:22:23.855Z,3.33
2022-10-27T15:24:50.737Z,3.47
2022-10-27T15:27:17.729Z,3.40
2022-10-27T15:29:46.027Z,3.20
2022-10-27T15:32:21.882Z,2.92
2022-10-27T15:34:49.126Z,3.35
2022-10-27T15:37:26.238Z,2.93
2022-10-27T15:39:54.021Z,3.40
2022-10-27T15:42:23.914Z,3.38
2022-10-27T15:44:50.788Z,3.25
2022-10-27T15:47:42.705Z,3.25
2022-10-27T15:50:24.389Z,3.90
2022-10-27T15:52:54.035Z,3.40
2022-10-27T15:55:23.584Z,3.47
2022-10-27T15:57:50.487Z,3.67
2022-10-27T16:00:24.756Z,4.30
2022-10-27T16:02:59.306Z,3.67
2022-10-27T16:05:31.611Z,4.18
2022-10-27T16:07:59.401Z,4.38
2022-10-27T16:10:27.937Z,3.80
2022-10-27T16:12:55.693Z,4.32
2022-10-27T16:15:25.229Z,4.27
2022-10-27T16:17:54.770Z,4.55
2022-10-27T16:20:33.891Z,5.78
2022-10-27T16:23:01.455Z,5.00
2022-10-27T16:25:30.377Z,4.28
2022-10-27T16:27:57.510Z,4.70
2022-10-27T16:30:23.977Z,4.50
2022-10-27T16:33:04.169Z,5.70
2022-10-27T16:35:33.978Z,5.20
2022-10-27T16:38:01.129Z,4.63
2022-10-27T16:40:27.961Z,4.53
2022-10-27T16:42:58.147Z,4.85
2022-10-27T16:45:24.743Z,4.50
2022-10-27T16:47:52.479Z,5.32
2022-10-27T16:50:19.340Z,5.45
2022-10-27T16:52:51.701Z,4.47
2022-10-27T16:55:18.134Z,5.70
2022-10-27T16:57:48.744Z,5.20
2022-10-27T17:00:16.630Z,5.10
2022-10-27T17:02:43.013Z,4.30
2022-10-27T17:05:09.620Z,4.93
2022-10-27T17:07:39.223Z,4.70
2022-10-27T17:10:06.406Z,5.53
2022-10-27T17:12:33.034Z,6.78
2022-10-27T17:14:59.387Z,6.07
2022-10-27T17:17:25.772Z,6.10
2022-10-27T17:19:52.225Z,5.45
2022-10-27T17:22:18.617Z,5.40
2022-10-27T17:24:45.023Z,5.35
2022-10-27T17:27:11.652Z,5.88
2022-10-27T17:29:38.106Z,5.57
2022-10-27T17:32:04.643Z,5.80
2022-10-27T17:34:32.130Z,5.32
2022-10-27T17:36:59.323Z,5.38
2022-10-27T17:39:25.681Z,6.10
2022-10-27T17:41:52.067Z,6.93
2022-10-27T17:44:18.658Z,5.68
2022-10-27T17:46:45.067Z,5.68
2022-10-27T17:49:11.488Z,5.30
2022-10-27T17:51:38.059Z,4.35
2022-10-27T17:54:04.523Z,5.10
2022-10-27T17:56:33.437Z,5.30
2022-10-27T17:59:00.076Z,8.82
2022-10-27T18:01:31.901Z,4.85
2022-10-27T18:04:06.924Z,5.35
2022-10-27T18:06:34.037Z,4.97
2022-10-27T18:09:02.288Z,5.95
2022-10-27T18:11:32.027Z,7.72
2022-10-27T18:14:03.362Z,6.00
2022-10-27T18:16:32.699Z,6.57
2022-10-27T18:19:03.822Z,6.20
2022-10-27T18:21:32.187Z,6.00
2022-10-27T18:24:00.292Z,11.25
2022-10-27T18:26:28.234Z,7.20
2022-10-27T18:28:54.950Z,6.38
2022-10-27T18:31:24.210Z,7.00
2022-10-27T18:33:50.989Z,7.35
2022-10-27T18:36:20.285Z,6.13
2022-10-27T18:38:47.323Z,5.97
2022-10-27T18:41:16.021Z,6.97
2022-10-27T18:43:46.793Z,6.77
2022-10-27T18:46:14.606Z,6.60
2022-10-27T18:48:41.240Z,7.80
2022-10-27T18:51:12.726Z,7.15
2022-10-27T18:53:39.430Z,13.45
2022-10-27T18:56:08.313Z,7.47
2022-10-27T18:58:36.310Z,7.50
2022-10-27T19:01:11.529Z,6.88
2022-10-27T19:03:38.779Z,6.05
2022-10-27T19:06:07.705Z,6.40
2022-10-27T19:08:34.726Z,5.87
2022-10-27T19:11:06.713Z,6.13
2022-10-27T19:13:34.864Z,6.53
2022-10-27T19:16:06.846Z,10.73
2022-10-27T19:18:33.771Z,16.02
2022-10-27T19:21:02.434Z,6.80
2022-10-27T19:23:30.017Z,5.68
2022-10-27T19:26:05.089Z,5.93
2022-10-27T19:28:32.478Z,8.80
2022-10-27T19:30:58.864Z,7.90
2022-10-27T19:33:25.701Z,6.50
2022-10-27T19:35:53.685Z,6.72
2022-10-27T19:38:21.351Z,6.25
2022-10-27T19:40:47.879Z,5.88
2022-10-27T19:43:14.411Z,7.15
2022-10-27T19:45:48.142Z,6.67
2022-10-27T19:48:17.412Z,6.00
2022-10-27T19:50:44.263Z,6.10
2022-10-27T19:53:11.499Z,5.65
2022-10-27T19:55:38.025Z,5.57
2022-10-27T19:58:04.534Z,5.77
2022-10-27T20:00:31.016Z,6.20
2022-10-27T20:02:58.046Z,5.80
2022-10-27T20:05:24.509Z,6.50
2022-10-27T20:07:51.910Z,6.20
2022-10-27T20:10:19.247Z,6.40
2022-10-27T20:12:45.755Z,5.57
2022-10-27T20:15:12.772Z,5.53
2022-10-27T20:17:39.374Z,5.88
2022-10-27T20:20:07.123Z,5.88
2022-10-27T20:22:33.516Z,6.70
2022-10-27T20:24:59.889Z,7.20
2022-10-27T20:27:29.282Z,7.60
2022-10-27T20:29:55.780Z,6.97
2022-10-27T20:32:23.752Z,6.25
2022-10-27T20:34:50.216Z,5.60
2022-10-27T20:37:16.686Z,12.32
2022-10-27T20:39:43.105Z,6.53
2022-10-27T20:42:09.565Z,5.97
2022-10-27T20:44:35.937Z,6.38
2022-10-27T20:47:02.424Z,5.53
2022-10-27T20:49:28.779Z,6.20
2022-10-27T20:51:55.177Z,6.40
2022-10-27T20:54:21.529Z,7.05
2022-10-27T20:56:49.109Z,6.65
2022-10-27T20:59:19.981Z,7.03
2022-10-27T21:01:49.165Z,7.75
2022-10-27T21:04:21.934Z,7.00
2022-10-27T21:06:50.447Z,24.33
2022-10-27T21:09:19.056Z,16.95
2022-10-27T21:11:46.815Z,7.97
2022-10-27T21:14:13.608Z,7.32
2022-10-27T21:16:40.511Z,6.68
2022-10-27T21:19:09.325Z,6.80
2022-10-27T21:21:36.321Z,6.05
2022-10-27T21:24:03.950Z,5.83
2022-10-27T21:26:30.453Z,6.30
2022-10-27T21:28:58.466Z,7.28
2022-10-27T21:31:28.620Z,6.78
2022-10-27T21:33:55.776Z,6.75
2022-10-27T21:36:22.348Z,6.50
2022-10-27T21:38:50.436Z,5.70
2022-10-27T21:41:19.765Z,5.80
2022-10-27T21:43:49.600Z,6.57
2022-10-27T21:46:19.218Z,6.80
2022-10-27T21:48:46.073Z,6.27
2022-10-27T21:51:14.189Z,6.40
2022-10-27T21:53:41.346Z,6.32
2022-10-27T21:56:09.967Z,5.70
2022-10-27T21:58:37.043Z,5.93
2022-10-27T22:01:22.250Z,5.87
2022-10-27T22:03:48.779Z,5.72
2022-10-27T22:06:16.555Z,5.65
2022-10-27T22:08:43.729Z,6.07
2022-10-27T22:11:15.126Z,6.82
2022-10-27T22:13:42.051Z,6.30
2022-10-27T22:16:10.804Z,5.70
2022-10-27T22:18:38.135Z,6.45
2022-10-27T22:21:05.923Z,6.00
2022-10-27T22:23:33.688Z,6.03
2022-10-27T22:26:26.938Z,6.33
2022-10-27T22:28:54.015Z,5.88
2022-10-27T22:31:23.441Z,5.60
2022-10-27T22:33:51.130Z,5.70
2022-10-27T22:36:19.087Z,6.00
2022-10-27T22:38:46.012Z,5.63
2022-10-27T22:41:16.249Z,5.50
2022-10-27T22:43:44.132Z,6.18
2022-10-27T22:46:16.698Z,5.78
2022-10-27T22:48:43.091Z,5.32
2022-10-27T22:51:14.250Z,6.23
2022-10-27T22:53:42.073Z,5.47
2022-10-27T22:56:12.931Z,5.97
2022-10-27T22:58:39.807Z,5.38
2022-10-27T23:01:08.785Z,5.82
2022-10-27T23:03:35.875Z,5.47
2022-10-27T23:06:03.287Z,5.35
2022-10-27T23:08:30.289Z,5.10
2022-10-27T23:10:58.650Z,5.10
2022-10-27T23:13:26.509Z,5.65
2022-10-27T23:15:54.661Z,5.43
2022-10-27T23:18:21.253Z,5.63
2022-10-27T23:20:47.701Z,6.10
2022-10-27T23:23:14.133Z,5.90
2022-10-27T23:25:40.565Z,5.63
2022-10-27T23:28:07.206Z,5.60
2022-10-27T23:30:33.967Z,5.85
2022-10-27T23:33:00.416Z,5.88
2022-10-27T23:35:26.762Z,5.57
2022-10-27T23:37:53.388Z,6.20
2022-10-27T23:40:19.884Z,6.03
2022-10-27T23:42:46.398Z,6.53
2022-10-27T23:45:12.899Z,7.15
2022-10-27T23:47:39.336Z,6.13
2022-10-27T23:50:06.096Z,5.93
2022-10-27T23:52:32.635Z,5.83
2022-10-27T23:54:59.262Z,6.05
2022-10-27T23:57:25.649Z,6.22
2022-10-27T23:59:52.152Z,6.05
